Terminal Aerodrome Forecast
Issued by NWS Goodland, KS

Current Version | Previous Version | Text Only | Print | Product List | Glossary On
Versions: 1 2 3 4 5 6 7 8 9 10 11 12 13 14 15 16
000
FTUS43 KGLD 070236 AAA
TAFGLD
TAF AMD
KGLD 070236Z 0703/0724 26009KT P6SM SKC
     FM071500 31008KT P6SM SKC
     FM072100 24006KT P6SM SKC
     FM072300 21007KT P6SM SKC=

USA.gov is the U.S. government's official web portal to all federal, state and local government web resources and services.